createdAt,value
2023-01-30T00:51:29.432Z,8.10
2023-01-30T02:19:31.034Z,7.10
2023-01-30T02:22:18.072Z,7.10
2023-01-30T02:24:59.836Z,7.10
2023-01-30T02:27:51.881Z,7.10
2023-01-30T02:30:37.572Z,7.10
2023-01-30T02:33:25.968Z,7.00
2023-01-30T02:36:28.292Z,7.00
2023-01-30T02:56:47.921Z,7.20
2023-01-30T02:59:21.661Z,7.20
2023-01-30T03:06:03.973Z,7.10
2023-01-30T03:08:42.896Z,7.20
2023-01-30T03:11:16.311Z,7.20
2023-01-30T03:14:13.589Z,7.20
2023-01-30T03:16:41.349Z,7.30
2023-01-30T03:19:12.862Z,7.30
2023-01-30T03:21:45.104Z,7.30
2023-01-30T03:24:13.218Z,7.30
2023-01-30T03:26:55.247Z,7.40
2023-01-30T03:29:32.841Z,7.40
2023-01-30T03:32:11.202Z,7.50
2023-01-30T03:44:45.490Z,7.70
2023-01-30T03:47:12.295Z,7.70
2023-01-30T03:49:39.310Z,7.70
2023-01-30T03:52:06.149Z,7.80
2023-01-30T03:55:39.381Z,7.80
2023-01-30T03:59:26.828Z,7.90
2023-01-30T04:01:57.937Z,7.90
2023-01-30T04:04:24.791Z,7.90
2023-01-30T04:06:56.417Z,7.90
2023-01-30T04:09:24.714Z,7.90
2023-01-30T04:11:51.994Z,7.90
2023-01-30T04:16:59.425Z,7.90
2023-01-30T04:19:36.244Z,7.80
2023-01-30T04:26:14.281Z,7.80
2023-01-30T04:28:45.931Z,7.70
2023-01-30T04:31:59.914Z,7.70
2023-01-30T04:57:51.182Z,7.80
2023-01-30T05:00:18.209Z,7.90
2023-01-30T05:02:51.400Z,8.00
2023-01-30T05:06:17.171Z,8.10
2023-01-30T05:09:11.165Z,8.10
2023-01-30T05:12:26.140Z,8.10
2023-01-30T05:15:45.145Z,8.00
2023-01-30T05:18:14.719Z,8.00
2023-01-30T05:20:41.586Z,7.90
2023-01-30T05:23:08.495Z,7.80
2023-01-30T05:25:38.638Z,7.70
2023-01-30T05:28:05.423Z,7.60
2023-01-30T05:30:32.415Z,7.60
2023-01-30T05:33:02.306Z,7.60
2023-01-30T05:35:29.529Z,7.50
2023-01-30T05:41:16.380Z,7.40
2023-01-30T05:43:53.293Z,7.30
2023-01-30T05:46:20.267Z,7.30
2023-01-30T05:48:49.326Z,7.20
2023-01-30T05:51:19.525Z,7.20
2023-01-30T05:53:47.003Z,7.10
2023-01-30T05:59:50.764Z,7.00
2023-01-30T06:05:24.733Z,6.80
2023-01-30T06:08:52.813Z,6.80
2023-01-30T06:18:39.455Z,6.70
2023-01-30T06:24:57.888Z,6.70
2023-01-30T06:27:28.696Z,6.60
2023-01-30T06:30:03.008Z,6.60
2023-01-30T06:32:29.838Z,6.60
2023-01-30T06:34:56.625Z,6.60
2023-01-30T06:37:23.389Z,6.50
2023-01-30T06:39:50.113Z,6.50
2023-01-30T06:42:16.851Z,6.50
2023-01-30T06:44:43.537Z,6.50
2023-01-30T06:55:43.678Z,6.40
2023-01-30T06:58:15.416Z,6.40
2023-01-30T07:00:55.756Z,6.40
2023-01-30T07:03:25.721Z,6.50
2023-01-30T07:05:52.566Z,6.50
2023-01-30T07:08:19.705Z,6.60
2023-01-30T07:10:46.585Z,6.60
2023-01-30T07:13:13.819Z,6.60
2023-01-30T07:15:42.575Z,6.60
2023-01-30T07:18:09.398Z,6.60
2023-01-30T07:20:36.271Z,6.50
2023-01-30T07:23:03.055Z,6.40
2023-01-30T07:25:30.297Z,6.40
2023-01-30T07:28:02.124Z,6.40
2023-01-30T07:30:31.694Z,6.40
2023-01-30T07:33:38.606Z,6.40
2023-01-30T07:36:13.135Z,6.40
2023-01-30T07:38:51.822Z,6.40
2023-01-30T07:45:05.008Z,6.50
2023-01-30T07:52:10.160Z,6.60
2023-01-30T07:58:57.556Z,6.60
2023-01-30T08:04:52.673Z,6.70
2023-01-30T08:07:19.491Z,6.60
2023-01-30T08:09:46.402Z,6.60
2023-01-30T08:12:13.679Z,6.60
2023-01-30T08:14:40.399Z,6.70
2023-01-30T08:17:07.149Z,6.80
2023-01-30T08:19:44.953Z,6.80
2023-01-30T08:22:11.689Z,6.90
2023-01-30T08:24:38.384Z,6.90
2023-01-30T08:27:05.196Z,6.90
2023-01-30T08:29:32.144Z,6.90
2023-01-30T08:31:59.988Z,7.00
2023-01-30T08:34:27.143Z,7.00
2023-01-30T08:36:57.605Z,7.00
2023-01-30T08:39:24.471Z,7.10
2023-01-30T08:41:51.276Z,7.10
2023-01-30T08:44:18.048Z,7.20
2023-01-30T08:46:51.873Z,7.20
2023-01-30T08:49:19.006Z,7.30
2023-01-30T08:51:45.872Z,7.30
2023-01-30T08:54:13.136Z,7.40
2023-01-30T08:56:40.018Z,7.50
2023-01-30T08:59:06.782Z,7.60
2023-01-30T09:01:33.754Z,7.70
2023-01-30T09:04:00.637Z,7.80
2023-01-30T09:06:27.494Z,7.90
2023-01-30T09:08:54.303Z,7.90
2023-01-30T09:11:21.220Z,7.90
2023-01-30T09:13:50.163Z,7.90
2023-01-30T09:16:17.389Z,8.00
2023-01-30T09:18:45.005Z,8.00
2023-01-30T09:21:13.032Z,8.00
2023-01-30T09:23:43.684Z,8.00
2023-01-30T09:26:10.850Z,8.00
2023-01-30T09:28:42.128Z,8.00
2023-01-30T09:31:09.125Z,8.00
2023-01-30T09:33:36.059Z,8.00
2023-01-30T09:36:02.918Z,8.00
2023-01-30T09:38:43.133Z,8.00
2023-01-30T09:41:16.055Z,8.10
2023-01-30T09:44:05.925Z,8.10
2023-01-30T09:46:48.876Z,8.10
2023-01-30T09:49:35.646Z,8.10
2023-01-30T09:52:18.180Z,8.10
2023-01-30T09:54:49.404Z,8.20
2023-01-30T09:57:24.814Z,8.20
2023-01-30T10:00:16.296Z,8.20
2023-01-30T10:03:08.110Z,8.30
2023-01-30T10:06:05.492Z,8.30
2023-01-30T10:08:41.194Z,8.30
2023-01-30T10:11:26.748Z,8.40
2023-01-30T10:13:56.343Z,8.40
2023-01-30T10:16:36.562Z,8.40
2023-01-30T10:19:33.565Z,8.50
2023-01-30T10:22:40.027Z,8.40
2023-01-30T10:25:31.099Z,8.40
2023-01-30T10:28:15.369Z,8.40
2023-01-30T10:30:51.188Z,8.40
2023-01-30T10:33:33.930Z,8.40
2023-01-30T10:36:11.865Z,8.50
2023-01-30T10:38:49.346Z,8.60
2023-01-30T10:41:22.719Z,8.70
2023-01-30T10:44:02.735Z,8.70
2023-01-30T10:46:35.982Z,8.60
2023-01-30T10:49:34.066Z,8.60
2023-01-30T10:52:38.249Z,8.50
2023-01-30T10:55:36.291Z,8.50
2023-01-30T10:58:27.644Z,8.50
2023-01-30T11:01:34.411Z,8.60
2023-01-30T11:04:31.474Z,8.50
2023-01-30T11:07:01.081Z,8.50
2023-01-30T11:12:51.023Z,8.50
2023-01-30T11:16:29.347Z,8.50
2023-01-30T11:21:58.250Z,8.40
2023-01-30T11:25:23.129Z,8.50
2023-01-30T11:28:07.992Z,8.50
2023-01-30T11:30:36.965Z,8.50
2023-01-30T11:33:06.869Z,8.50
2023-01-30T11:35:36.660Z,8.60
2023-01-30T11:38:38.760Z,8.70
2023-01-30T11:41:18.731Z,8.60
2023-01-30T11:43:48.607Z,8.50
2023-01-30T11:46:25.632Z,8.50
2023-01-30T11:49:45.057Z,8.50
2023-01-30T11:52:15.870Z,8.50
2023-01-30T12:01:42.072Z,8.50
2023-01-30T12:04:15.541Z,8.40
2023-01-30T12:06:57.125Z,8.40
2023-01-30T12:09:39.973Z,8.60
2023-01-30T12:12:53.988Z,8.60
2023-01-30T12:15:26.225Z,8.60
2023-01-30T12:17:57.754Z,8.60
2023-01-30T12:20:47.070Z,8.60
2023-01-30T12:23:40.175Z,8.60
2023-01-30T12:26:31.644Z,8.60
2023-01-30T12:29:12.460Z,8.60
2023-01-30T12:31:58.724Z,8.50
2023-01-30T12:34:27.717Z,8.40
2023-01-30T12:37:19.962Z,8.40
2023-01-30T12:40:03.453Z,8.50
2023-01-30T12:42:58.777Z,8.60
2023-01-30T12:45:29.450Z,8.70
2023-01-30T12:48:11.292Z,8.80
2023-01-30T12:50:54.728Z,8.90
2023-01-30T12:53:34.173Z,8.80
2023-01-30T12:56:36.076Z,8.80
2023-01-30T12:59:21.716Z,8.80
2023-01-30T13:02:06.479Z,8.80
2023-01-30T13:04:56.655Z,8.80
2023-01-30T13:08:08.669Z,8.70
2023-01-30T13:10:41.216Z,8.70
2023-01-30T13:13:13.011Z,8.90
2023-01-30T13:15:53.195Z,9.00
2023-01-30T13:18:36.629Z,9.00
2023-01-30T13:21:24.604Z,9.00
2023-01-30T13:24:24.132Z,9.00
2023-01-30T13:26:52.972Z,9.00
2023-01-30T13:29:38.113Z,9.00
2023-01-30T13:32:44.020Z,9.00
2023-01-30T13:35:36.102Z,9.00
2023-01-30T13:38:05.651Z,9.00
2023-01-30T13:40:42.408Z,9.00
2023-01-30T13:43:16.219Z,8.80
2023-01-30T13:45:46.261Z,8.80
2023-01-30T13:48:50.765Z,8.70
2023-01-30T13:51:37.175Z,8.70
2023-01-30T13:54:20.436Z,8.80
2023-01-30T13:56:53.314Z,8.70
2023-01-30T13:59:41.714Z,8.80
2023-01-30T14:02:16.819Z,8.80
2023-01-30T14:04:49.311Z,8.70
2023-01-30T14:07:36.261Z,8.70
2023-01-30T14:10:03.151Z,8.70
2023-01-30T14:12:44.366Z,8.60
2023-01-30T14:15:14.639Z,8.50
2023-01-30T14:17:57.805Z,8.30
2023-01-30T14:20:27.596Z,8.30
2023-01-30T14:22:58.324Z,8.40
2023-01-30T14:25:28.394Z,8.50
2023-01-30T14:28:01.685Z,8.60
2023-01-30T14:30:32.476Z,8.70
2023-01-30T14:33:01.318Z,8.80
2023-01-30T14:35:30.301Z,8.80
2023-01-30T14:38:17.495Z,8.90
2023-01-30T14:40:48.081Z,8.90
2023-01-30T14:43:15.036Z,8.90
2023-01-30T14:45:47.680Z,8.90
2023-01-30T14:48:37.657Z,8.80
2023-01-30T14:51:25.328Z,8.70
2023-01-30T14:54:14.615Z,8.60
2023-01-30T14:56:47.126Z,8.50
2023-01-30T14:59:16.910Z,8.50
2023-01-30T15:01:59.074Z,8.50
2023-01-30T15:04:44.785Z,8.50
2023-01-30T15:07:39.380Z,8.50
2023-01-30T15:10:10.168Z,8.40
2023-01-30T15:13:14.579Z,8.50
2023-01-30T15:15:58.425Z,8.50
2023-01-30T15:18:55.595Z,8.50
2023-01-30T15:21:29.260Z,8.40
2023-01-30T15:24:19.455Z,8.40
2023-01-30T15:26:52.055Z,8.40
2023-01-30T15:29:44.517Z,8.40
2023-01-30T15:32:22.930Z,8.30
2023-01-30T15:35:02.082Z,8.30
2023-01-30T15:37:47.649Z,8.20
2023-01-30T15:40:19.672Z,8.20
2023-01-30T15:43:01.830Z,8.20
2023-01-30T15:45:28.545Z,8.20
2023-01-30T15:48:08.744Z,8.20
2023-01-30T15:50:36.432Z,8.20
2023-01-30T15:53:03.487Z,8.10
2023-01-30T15:55:33.987Z,8.10
2023-01-30T15:58:09.609Z,8.10
2023-01-30T16:00:47.105Z,8.00
2023-01-30T16:03:28.169Z,7.90
2023-01-30T16:05:56.922Z,7.80
2023-01-30T16:08:34.354Z,7.70
2023-01-30T16:11:01.662Z,7.70
2023-01-30T16:13:29.640Z,7.60
2023-01-30T16:16:02.496Z,7.50
2023-01-30T16:18:38.646Z,7.50
2023-01-30T16:21:17.233Z,7.50
2023-01-30T16:24:35.118Z,7.50
2023-01-30T16:27:16.385Z,7.50
2023-01-30T16:30:24.412Z,7.50
2023-01-30T16:33:13.563Z,7.50
2023-01-30T16:43:31.405Z,7.60
2023-01-30T16:46:46.289Z,7.60
2023-01-30T16:52:49.282Z,7.30
2023-01-30T16:55:46.066Z,7.00
2023-01-30T17:06:04.901Z,6.80
2023-01-30T17:09:01.995Z,6.80
2023-01-30T17:11:58.756Z,6.70
2023-01-30T17:14:40.888Z,6.70
2023-01-30T17:17:20.922Z,6.70
2023-01-30T17:24:37.569Z,6.80
2023-01-30T17:27:08.021Z,6.80
2023-01-30T17:33:18.609Z,6.70
2023-01-30T17:36:45.713Z,6.70
2023-01-30T17:39:25.269Z,6.70
2023-01-30T17:41:58.551Z,6.60
2023-01-30T17:44:41.967Z,6.70
2023-01-30T17:47:24.467Z,6.70
2023-01-30T17:50:39.180Z,6.70
2023-01-30T17:53:59.368Z,6.70
2023-01-30T17:56:37.867Z,6.70
2023-01-30T17:59:28.872Z,6.70
2023-01-30T18:02:01.045Z,6.60
2023-01-30T18:04:33.745Z,6.60
2023-01-30T18:07:24.953Z,6.50
2023-01-30T18:10:03.355Z,6.40
2023-01-30T18:12:35.620Z,6.40
2023-01-30T18:15:11.204Z,6.40
2023-01-30T18:17:58.882Z,6.30
2023-01-30T18:20:31.338Z,6.30
2023-01-30T18:23:10.016Z,6.40
2023-01-30T18:25:47.369Z,6.30
2023-01-30T18:28:47.503Z,6.10
2023-01-30T18:59:26.475Z,5.30
2023-01-30T19:02:28.114Z,5.40
2023-01-30T19:05:13.863Z,5.30
2023-01-30T19:07:45.814Z,5.20
2023-01-30T19:10:21.600Z,5.10
2023-01-30T19:13:11.229Z,4.90
2023-01-30T19:16:03.971Z,4.80
2023-01-30T19:18:40.646Z,4.80
2023-01-30T19:21:10.918Z,4.70
2023-01-30T19:23:53.952Z,4.70
2023-01-30T19:26:41.188Z,4.60
2023-01-30T19:29:22.319Z,4.60
2023-01-30T19:31:57.639Z,4.50
2023-01-30T19:34:38.201Z,4.50
2023-01-30T19:37:05.136Z,4.40
2023-01-30T19:43:18.340Z,4.30
2023-01-30T21:45:19.630Z,4.10
2023-01-30T23:55:23.652Z,3.00
2023-01-30T23:57:51.511Z,3.00
